KPBF/PBF METAR and TAF weather

Enter ICAO airport designator
Station Type Date Time Source
KPBF METAR 2018/12/15 21:53 UTC NOAA

KPBF 152153Z AUTO 29007KT 10SM BKN015 OVC021 09/07 A3005 RMK AO2 SLP174 T00940067


Station Type Date Time Source
KPBF Decoded METAR 2018/12/15 21:53 UTC NOAA

PINE BLUFF GRIDER FIELD, AR, United States (KPBF) 34-11N 091-56W 62M
Dec 15, 2018 - 04:53 PM EST / 2018.12.15 2153 UTC
Wind: from the WNW (290 degrees) at 8 MPH (7 KT):0
Visibility: 10 mile(s):0
Sky conditions: overcast
Temperature: 48.9 F (9.4 C)
Dew Point: 44.1 F (6.7 C)
Relative Humidity: 83%
Pressure (altimeter): 30.05 in. Hg (1017 hPa)
ob: KPBF 152153Z AUTO 29007KT 10SM BKN015 OVC021 09/07 A3005 RMK AO2 SLP174 T00940067
cycle: 22

Station Type Date Time Source
KPBF TAF 2018/12/15 21:40 UTC NOAA

TAF
AMD KPBF 152037Z 1521/1618 31007KT P6SM OVC014
FM160000 31003KT P6SM SCT250
FM161000 34003KT 6SM BR SKC
FM161400 35003KT P6SM SKC


Example: see airport list